createdAt,value
2022-12-04T00:02:08.695Z,0.40
2022-12-04T00:04:35.162Z,0.20
2022-12-04T00:07:01.775Z,0.38
2022-12-04T00:09:28.208Z,0.28
2022-12-04T00:11:54.756Z,0.32
2022-12-04T00:14:21.194Z,0.12
2022-12-04T00:16:47.664Z,-0.03
2022-12-04T00:19:14.122Z,0.42
2022-12-04T00:21:40.570Z,0.35
2022-12-04T00:24:07.270Z,0.38
2022-12-04T00:26:34.062Z,0.39
2022-12-04T00:29:00.729Z,0.12
2022-12-04T00:31:29.646Z,0.20
2022-12-04T00:33:56.165Z,0.01
2022-12-04T00:36:25.407Z,0.27
2022-12-04T00:38:51.864Z,0.02
2022-12-04T00:41:22.142Z,-0.14
2022-12-04T00:43:48.770Z,-0.03
2022-12-04T00:46:15.976Z,0.07
2022-12-04T00:48:43.497Z,-0.12
2022-12-04T00:51:13.738Z,-0.18
2022-12-04T00:53:40.651Z,-0.14
2022-12-04T00:56:10.274Z,0.20
2022-12-04T00:58:36.755Z,0.15
2022-12-04T01:01:05.787Z,-0.02
2022-12-04T01:03:32.313Z,0.25
2022-12-04T01:05:59.207Z,0.14
2022-12-04T01:08:25.909Z,0.32
2022-12-04T01:10:52.334Z,0.12
2022-12-04T01:13:18.797Z,0.16
2022-12-04T01:15:47.263Z,0.19
2022-12-04T01:18:14.481Z,0.09
2022-12-04T01:20:47.754Z,0.05
2022-12-04T01:23:14.258Z,0.03
2022-12-04T01:25:40.707Z,-0.05
2022-12-04T01:28:07.118Z,-0.06
2022-12-04T01:30:33.551Z,0.09
2022-12-04T01:32:59.983Z,0.14
2022-12-04T01:35:26.365Z,0.03
2022-12-04T01:37:52.780Z,0.11
2022-12-04T01:40:20.053Z,0.12
2022-12-04T01:42:46.446Z,0.15
2022-12-04T01:45:31.136Z,0.24
2022-12-04T01:48:09.250Z,0.10
2022-12-04T01:50:35.853Z,-0.02
2022-12-04T01:53:02.298Z,0.01
2022-12-04T01:55:30.853Z,-0.02
2022-12-04T01:57:58.556Z,0.05
2022-12-04T02:00:25.164Z,0.09
2022-12-04T02:02:51.668Z,0.05
2022-12-04T02:05:21.192Z,0.01
2022-12-04T02:07:50.784Z,0.17
2022-12-04T02:10:24.273Z,0.19
2022-12-04T02:13:07.431Z,0.14
2022-12-04T02:15:45.756Z,0.28
2022-12-04T02:18:27.407Z,0.43
2022-12-04T02:21:12.167Z,0.34
2022-12-04T02:23:44.610Z,0.36
2022-12-04T02:26:49.105Z,0.39
2022-12-04T02:29:18.438Z,0.39
2022-12-04T02:31:51.422Z,0.29
2022-12-04T02:34:33.159Z,0.28
2022-12-04T02:37:08.694Z,0.49
2022-12-04T02:39:44.429Z,0.53
2022-12-04T02:42:14.542Z,0.22
2022-12-04T02:44:53.496Z,0.31
2022-12-04T02:47:22.686Z,0.25
2022-12-04T02:50:17.863Z,0.35
2022-12-04T02:52:49.265Z,0.31
2022-12-04T02:55:29.656Z,0.60
2022-12-04T02:58:02.349Z,0.61
2022-12-04T03:00:30.283Z,0.46
2022-12-04T03:03:02.527Z,0.59
2022-12-04T03:05:38.735Z,0.60
2022-12-04T03:08:11.120Z,0.57
2022-12-04T03:10:48.790Z,0.41
2022-12-04T03:13:40.943Z,0.48
2022-12-04T03:16:14.254Z,0.28
2022-12-04T03:18:58.934Z,0.35
2022-12-04T03:21:29.993Z,0.32
2022-12-04T03:24:02.853Z,0.39
2022-12-04T03:26:37.084Z,0.36
2022-12-04T03:29:21.100Z,0.41
2022-12-04T03:32:04.671Z,0.64
2022-12-04T03:34:57.886Z,0.64
2022-12-04T03:37:34.070Z,0.51
2022-12-04T03:40:38.057Z,0.63
2022-12-04T03:43:13.354Z,0.72
2022-12-04T03:45:45.845Z,0.63
2022-12-04T03:48:41.754Z,0.76
2022-12-04T03:51:29.662Z,0.96
2022-12-04T03:54:02.532Z,0.78
2022-12-04T03:56:36.630Z,0.69
2022-12-04T03:59:15.286Z,0.64
2022-12-04T04:01:48.714Z,0.90
2022-12-04T04:04:22.977Z,0.70
2022-12-04T04:06:55.381Z,0.74
2022-12-04T04:09:25.421Z,0.58
2022-12-04T04:12:00.513Z,0.75
2022-12-04T04:14:57.968Z,0.69
2022-12-04T04:17:48.594Z,0.85
2022-12-04T04:20:39.752Z,0.86
2022-12-04T04:23:29.879Z,0.67
2022-12-04T04:26:00.526Z,0.76
2022-12-04T04:28:39.285Z,0.83
2022-12-04T04:31:41.015Z,0.84
2022-12-04T04:34:35.387Z,0.91
2022-12-04T04:37:19.243Z,0.83
2022-12-04T04:39:56.535Z,0.87
2022-12-04T04:42:40.396Z,0.86
2022-12-04T04:45:15.804Z,1.41
2022-12-04T04:47:50.333Z,1.29
2022-12-04T04:50:17.915Z,1.73
2022-12-04T04:52:49.018Z,1.53
2022-12-04T04:55:17.105Z,1.27
2022-12-04T04:57:43.563Z,1.36
2022-12-04T05:00:20.328Z,1.16
2022-12-04T05:02:48.629Z,1.05
2022-12-04T05:05:15.052Z,1.06
2022-12-04T05:07:41.808Z,1.11
2022-12-04T05:10:09.479Z,1.13
2022-12-04T05:12:35.895Z,1.22
2022-12-04T05:15:02.515Z,1.13
2022-12-04T05:17:28.998Z,0.96
2022-12-04T05:19:56.785Z,1.10
2022-12-04T05:22:27.580Z,0.99
2022-12-04T05:24:54.865Z,1.00
2022-12-04T05:27:22.414Z,1.18
2022-12-04T05:29:48.989Z,1.58
2022-12-04T05:32:15.543Z,1.30
2022-12-04T05:34:42.166Z,1.56
2022-12-04T05:37:08.662Z,1.58
2022-12-04T05:39:35.599Z,1.63
2022-12-04T05:42:02.013Z,1.55
2022-12-04T05:44:28.541Z,1.49
2022-12-04T05:46:55.002Z,1.46
2022-12-04T05:49:21.435Z,1.41
2022-12-04T05:51:50.311Z,1.44
2022-12-04T05:54:17.771Z,1.50
2022-12-04T05:56:44.609Z,1.44
2022-12-04T05:59:11.026Z,1.44
2022-12-04T06:01:37.511Z,1.42
2022-12-04T06:04:04.079Z,1.43
2022-12-04T06:06:30.603Z,1.59
2022-12-04T06:08:59.559Z,1.51
2022-12-04T06:11:32.241Z,1.46
2022-12-04T06:14:00.571Z,1.54
2022-12-04T06:16:28.482Z,1.74
2022-12-04T06:18:58.759Z,1.67
2022-12-04T06:21:27.705Z,1.63
2022-12-04T06:23:54.233Z,1.62
2022-12-04T06:26:22.315Z,1.70
2022-12-04T06:28:49.030Z,1.71
2022-12-04T06:31:18.804Z,1.70
2022-12-04T06:33:45.436Z,1.58
2022-12-04T06:36:14.852Z,1.65
2022-12-04T06:38:42.151Z,1.79
2022-12-04T06:41:13.381Z,1.73
2022-12-04T06:43:40.661Z,1.68
2022-12-04T06:46:10.360Z,1.71
2022-12-04T06:48:37.407Z,1.74
2022-12-04T06:51:19.002Z,1.91
2022-12-04T06:53:45.974Z,1.99
2022-12-04T06:56:17.849Z,2.10
2022-12-04T06:58:49.335Z,1.91
2022-12-04T07:01:18.545Z,1.90
2022-12-04T07:03:50.992Z,2.04
2022-12-04T07:06:28.982Z,2.06
2022-12-04T07:08:59.506Z,2.00
2022-12-04T07:11:26.576Z,1.99
2022-12-04T07:13:54.854Z,1.98
2022-12-04T07:16:23.044Z,2.01
2022-12-04T07:18:59.117Z,2.01
2022-12-04T07:21:28.327Z,2.09
2022-12-04T07:23:57.704Z,2.04
2022-12-04T07:26:25.431Z,2.18
2022-12-04T07:28:53.388Z,2.29
2022-12-04T07:31:22.504Z,2.23
2022-12-04T07:33:49.960Z,2.24
2022-12-04T07:36:19.486Z,2.21
2022-12-04T07:38:47.013Z,2.33
2022-12-04T07:41:14.382Z,2.46
2022-12-04T07:43:41.687Z,2.44
2022-12-04T07:46:12.539Z,2.60
2022-12-04T07:48:39.089Z,2.61
2022-12-04T07:51:11.620Z,2.88
2022-12-04T07:53:38.827Z,2.52
2022-12-04T07:56:05.990Z,2.55
2022-12-04T07:58:33.684Z,2.66
2022-12-04T08:01:06.363Z,2.53
2022-12-04T08:03:32.874Z,2.57
2022-12-04T08:06:03.975Z,2.98
2022-12-04T08:08:30.557Z,2.70
2022-12-04T08:10:57.854Z,2.81
2022-12-04T08:13:24.524Z,2.64
2022-12-04T08:15:51.806Z,2.64
2022-12-04T08:18:18.354Z,2.51
2022-12-04T08:20:45.063Z,3.04
2022-12-04T08:23:11.520Z,2.86
2022-12-04T08:25:40.213Z,2.81
2022-12-04T08:28:07.209Z,2.77
2022-12-04T08:30:34.803Z,2.74
2022-12-04T08:33:01.718Z,3.10
2022-12-04T08:35:28.285Z,2.84
2022-12-04T08:37:54.689Z,3.04
2022-12-04T08:40:21.109Z,3.40
2022-12-04T08:42:47.528Z,3.34
2022-12-04T08:45:14.099Z,3.11
2022-12-04T08:47:40.545Z,3.35
2022-12-04T08:50:07.308Z,3.60
2022-12-04T08:52:33.773Z,3.60
2022-12-04T08:55:00.204Z,3.68
2022-12-04T08:57:26.607Z,3.68
2022-12-04T08:59:53.302Z,3.54
2022-12-04T09:02:20.456Z,3.73
2022-12-04T09:04:46.941Z,4.04
2022-12-04T09:07:13.487Z,3.86
2022-12-04T09:09:44.937Z,3.96
2022-12-04T09:12:14.415Z,4.26
2022-12-04T09:14:40.897Z,4.00
2022-12-04T09:17:07.282Z,3.97
2022-12-04T09:19:35.311Z,3.77
2022-12-04T09:22:01.696Z,3.73
2022-12-04T09:24:30.383Z,3.85
2022-12-04T09:26:56.953Z,3.95
2022-12-04T09:29:23.373Z,3.82
2022-12-04T09:31:49.766Z,4.02
2022-12-04T09:34:16.201Z,3.94
2022-12-04T09:36:42.619Z,3.90
2022-12-04T09:39:10.259Z,3.95
2022-12-04T09:41:36.644Z,3.98
2022-12-04T09:44:10.946Z,3.69
2022-12-04T09:47:02.184Z,4.35
2022-12-04T09:49:45.974Z,4.26
2022-12-04T09:52:47.990Z,4.11
2022-12-04T09:55:22.493Z,3.91
2022-12-04T09:57:52.640Z,4.40
2022-12-04T10:00:21.715Z,4.03
2022-12-04T10:03:14.541Z,4.03
2022-12-04T10:06:16.827Z,4.03
2022-12-04T10:08:46.210Z,4.20
2022-12-04T10:11:32.268Z,4.14
2022-12-04T10:14:16.558Z,3.86
2022-12-04T10:16:52.033Z,3.85
2022-12-04T10:19:30.077Z,3.92
2022-12-04T10:22:23.907Z,4.35
2022-12-04T10:24:56.771Z,3.90
2022-12-04T10:27:36.219Z,3.87
2022-12-04T10:30:07.908Z,3.87
2022-12-04T10:32:35.080Z,3.79
2022-12-04T10:35:21.991Z,4.09
2022-12-04T10:37:58.622Z,4.12
2022-12-04T10:40:51.998Z,4.00
2022-12-04T10:43:43.048Z,4.18
2022-12-04T10:46:26.183Z,4.45
2022-12-04T10:49:14.639Z,4.03
2022-12-04T10:51:42.884Z,4.26
2022-12-04T10:54:27.463Z,4.08
2022-12-04T10:56:57.545Z,4.37
2022-12-04T10:59:25.356Z,4.91
2022-12-04T11:02:24.615Z,4.62
2022-12-04T11:04:56.910Z,4.35
2022-12-04T11:07:26.749Z,4.21
2022-12-04T11:09:58.860Z,4.40
2022-12-04T11:12:25.572Z,4.16
2022-12-04T11:15:07.817Z,4.54
2022-12-04T11:17:34.367Z,4.43
2022-12-04T11:20:02.306Z,4.25
2022-12-04T11:22:28.778Z,4.04
2022-12-04T11:24:59.424Z,4.04
2022-12-04T11:27:33.640Z,4.39
2022-12-04T11:30:10.175Z,4.08
2022-12-04T11:32:38.407Z,4.41
2022-12-04T11:35:23.519Z,4.45
2022-12-04T11:37:57.948Z,4.22
2022-12-04T11:40:26.696Z,4.46
2022-12-04T11:43:06.076Z,4.10
2022-12-04T11:45:33.172Z,4.06
2022-12-04T11:48:13.169Z,4.00
2022-12-04T11:51:04.679Z,4.12
2022-12-04T11:53:49.722Z,4.26
2022-12-04T11:56:31.418Z,4.05
2022-12-04T11:59:10.464Z,3.93
2022-12-04T12:01:56.305Z,4.15
2022-12-04T12:04:32.486Z,3.83
2022-12-04T12:07:14.053Z,3.77
2022-12-04T12:10:05.394Z,3.91
2022-12-04T12:13:03.754Z,3.82
2022-12-04T12:15:58.569Z,3.97
2022-12-04T12:18:49.683Z,4.08
2022-12-04T12:21:27.231Z,4.06
2022-12-04T12:23:59.602Z,3.89
2022-12-04T12:26:46.033Z,4.05
2022-12-04T12:29:32.401Z,3.85
2022-12-04T12:32:04.655Z,3.93
2022-12-04T12:34:34.099Z,3.85
2022-12-04T12:37:08.880Z,3.92
2022-12-04T12:39:53.757Z,3.88
2022-12-04T12:42:28.779Z,4.20
2022-12-04T12:45:26.406Z,4.15
2022-12-04T12:47:56.433Z,4.28
2022-12-04T12:50:28.926Z,4.30
2022-12-04T12:53:19.167Z,4.29
2022-12-04T12:55:54.023Z,4.16
2022-12-04T12:58:30.785Z,4.43
2022-12-04T13:01:26.504Z,4.19
2022-12-04T13:04:28.817Z,4.20
2022-12-04T13:07:10.085Z,4.24
2022-12-04T13:09:41.506Z,4.31
2022-12-04T13:12:14.548Z,4.49
2022-12-04T13:14:45.931Z,4.24
2022-12-04T13:17:22.261Z,4.43
2022-12-04T13:19:55.314Z,4.66
2022-12-04T13:22:29.851Z,4.78
2022-12-04T13:25:27.824Z,4.36
2022-12-04T13:28:06.520Z,4.22
2022-12-04T13:30:48.494Z,4.07
2022-12-04T13:33:39.853Z,4.15
2022-12-04T13:36:29.594Z,4.26
2022-12-04T13:39:18.086Z,4.07
2022-12-04T13:41:44.570Z,4.13
2022-12-04T13:44:31.517Z,4.15
2022-12-04T13:47:07.664Z,4.17
2022-12-04T13:49:37.207Z,4.06
2022-12-04T13:52:19.894Z,4.07
2022-12-04T13:55:00.387Z,4.24
2022-12-04T13:57:28.550Z,4.22
2022-12-04T14:00:23.683Z,4.53
2022-12-04T14:02:52.843Z,4.42
2022-12-04T14:05:28.018Z,4.32
2022-12-04T14:08:07.851Z,4.12
2022-12-04T14:10:38.414Z,4.45
2022-12-04T14:13:22.143Z,4.39
2022-12-04T14:15:49.189Z,4.68
2022-12-04T14:18:29.738Z,4.38
2022-12-04T14:21:05.422Z,4.42
2022-12-04T14:23:39.022Z,4.26
2022-12-04T14:26:18.538Z,4.26
2022-12-04T14:28:45.228Z,4.12
2022-12-04T14:31:23.673Z,4.16
2022-12-04T14:33:58.395Z,4.12
2022-12-04T14:36:37.439Z,4.27
2022-12-04T14:39:11.690Z,4.29
2022-12-04T14:41:38.765Z,4.59
2022-12-04T14:44:05.487Z,4.50
2022-12-04T14:46:31.883Z,4.48
2022-12-04T14:49:20.241Z,4.36
2022-12-04T14:51:59.655Z,4.28
2022-12-04T14:54:39.194Z,4.28
2022-12-04T14:57:42.635Z,4.53
2022-12-04T15:00:23.302Z,4.57
2022-12-04T15:02:59.573Z,4.26
2022-12-04T15:05:31.269Z,4.34
2022-12-04T15:08:04.953Z,4.35
2022-12-04T15:10:52.590Z,4.34
2022-12-04T15:13:30.219Z,4.52
2022-12-04T15:15:57.437Z,4.32
2022-12-04T15:18:24.162Z,4.43
2022-12-04T15:20:53.262Z,4.52
2022-12-04T15:23:30.914Z,4.36
2022-12-04T15:26:01.860Z,4.39
2022-12-04T15:28:33.258Z,4.43
2022-12-04T15:31:02.839Z,4.44
2022-12-04T15:41:03.098Z,4.63
2022-12-04T15:43:32.096Z,4.49
2022-12-04T15:45:59.244Z,4.68
2022-12-04T15:48:31.019Z,4.70
2022-12-04T15:51:00.702Z,4.55
2022-12-04T15:53:31.078Z,4.47
2022-12-04T15:56:02.391Z,4.48
2022-12-04T15:58:34.790Z,4.49
2022-12-04T16:01:05.092Z,4.42
2022-12-04T16:03:37.681Z,4.37
2022-12-04T16:06:23.814Z,4.35
2022-12-04T16:08:57.862Z,4.37
2022-12-04T16:11:31.218Z,4.59
2022-12-04T16:14:14.860Z,4.65
2022-12-04T16:16:51.746Z,4.57
2022-12-04T16:19:29.120Z,4.55
2022-12-04T16:21:55.982Z,4.75
2022-12-04T16:24:22.838Z,4.63
2022-12-04T16:26:55.913Z,4.72
2022-12-04T16:29:23.431Z,4.63
2022-12-04T16:31:50.551Z,4.44
2022-12-04T16:34:18.816Z,4.37
2022-12-04T16:36:45.323Z,4.40
2022-12-04T16:39:11.734Z,4.58
2022-12-04T16:41:38.932Z,4.48
2022-12-04T16:44:12.695Z,4.49
2022-12-04T16:46:39.225Z,4.60
2022-12-04T16:49:07.627Z,4.42
2022-12-04T16:51:37.324Z,4.41
2022-12-04T16:54:03.739Z,4.59
2022-12-04T16:56:30.129Z,4.46
2022-12-04T16:58:56.540Z,4.65
2022-12-04T17:01:36.394Z,4.45
2022-12-04T17:04:03.122Z,4.42
2022-12-04T17:06:31.073Z,4.40
2022-12-04T17:08:57.514Z,4.40
2022-12-04T17:11:23.919Z,4.62
2022-12-04T17:13:50.544Z,4.56
2022-12-04T17:16:19.635Z,4.71
2022-12-04T17:18:46.751Z,4.60
2022-12-04T17:21:14.134Z,4.52
2022-12-04T17:23:41.470Z,4.44
2022-12-04T17:26:11.200Z,4.37
2022-12-04T17:28:38.490Z,4.35
2022-12-04T17:31:16.790Z,4.43
2022-12-04T17:33:44.388Z,4.38
2022-12-04T17:36:12.799Z,4.59
2022-12-04T17:38:41.706Z,4.43
2022-12-04T17:41:10.202Z,4.62
2022-12-04T17:43:36.805Z,4.55
2022-12-04T17:46:12.380Z,4.46
2022-12-04T17:48:38.907Z,4.61
2022-12-04T17:51:10.110Z,4.40
2022-12-04T17:53:38.025Z,4.53
2022-12-04T17:56:06.810Z,4.41
2022-12-04T17:58:35.260Z,4.35
2022-12-04T18:01:06.994Z,4.30
2022-12-04T18:03:34.537Z,4.32
2022-12-04T18:06:01.598Z,4.29
2022-12-04T18:08:31.070Z,4.35
2022-12-04T18:10:57.645Z,4.45
2022-12-04T18:13:24.245Z,4.46
2022-12-04T18:15:50.741Z,4.43
2022-12-04T18:18:17.308Z,4.46
2022-12-04T18:20:43.741Z,4.42
2022-12-04T18:23:10.935Z,4.76
2022-12-04T18:25:37.488Z,4.55
2022-12-04T18:28:04.029Z,4.65
2022-12-04T18:30:32.004Z,4.49
2022-12-04T18:32:58.979Z,4.47
2022-12-04T18:35:25.467Z,4.42
2022-12-04T18:37:52.107Z,4.52
2022-12-04T18:40:18.543Z,4.47
2022-12-04T18:42:44.959Z,4.57
2022-12-04T18:45:12.337Z,4.45
2022-12-04T18:47:38.807Z,4.53
2022-12-04T18:50:05.740Z,4.47
2022-12-04T18:52:35.679Z,4.47
2022-12-04T18:55:02.202Z,4.50
2022-12-04T18:57:31.371Z,4.49
2022-12-04T18:59:59.159Z,4.60
2022-12-04T19:02:25.855Z,4.49
2022-12-04T19:04:52.457Z,4.49
2022-12-04T19:07:19.041Z,4.48
2022-12-04T19:10:10.369Z,4.45
2022-12-04T19:12:32.077Z,4.68
2022-12-04T19:14:58.529Z,4.57
2022-12-04T19:17:24.966Z,4.52
2022-12-04T19:19:51.410Z,4.64
2022-12-04T19:22:18.179Z,4.48
2022-12-04T19:24:44.667Z,4.45
2022-12-04T19:27:11.954Z,4.66
2022-12-04T19:29:43.298Z,4.67
2022-12-04T19:32:10.907Z,4.65
2022-12-04T19:34:38.066Z,4.66
2022-12-04T19:37:04.662Z,4.57
2022-12-04T19:39:31.151Z,4.49
2022-12-04T19:41:57.653Z,4.59
2022-12-04T19:44:47.887Z,4.49
2022-12-04T19:47:11.427Z,4.50
2022-12-04T19:49:38.155Z,4.54
2022-12-04T19:52:05.362Z,4.82
2022-12-04T19:54:32.310Z,4.81
2022-12-04T19:56:58.706Z,4.78
2022-12-04T19:59:25.131Z,4.67
2022-12-04T20:01:52.539Z,4.66
2022-12-04T20:04:19.190Z,4.69
2022-12-04T20:06:46.495Z,4.65
2022-12-04T20:09:16.279Z,4.67
2022-12-04T20:11:42.725Z,4.52
2022-12-04T20:14:10.007Z,4.67
2022-12-04T20:16:38.223Z,4.50
2022-12-04T20:19:07.223Z,4.64
2022-12-04T20:21:34.204Z,4.63
2022-12-04T20:24:03.115Z,4.67
2022-12-04T20:26:34.265Z,4.73
2022-12-04T20:29:02.120Z,4.53
2022-12-04T20:31:32.216Z,4.56
2022-12-04T20:34:00.840Z,4.60
2022-12-04T20:36:28.675Z,4.59
2022-12-04T20:39:00.867Z,4.55
2022-12-04T20:41:29.201Z,4.58
2022-12-04T20:43:56.032Z,4.60
2022-12-04T20:46:25.458Z,4.64
2022-12-04T20:48:53.547Z,4.64
2022-12-04T20:51:25.948Z,4.73
2022-12-04T20:53:56.157Z,4.62
2022-12-04T20:56:23.259Z,4.57
2022-12-04T20:58:49.737Z,4.70
2022-12-04T21:01:18.397Z,4.54
2022-12-04T21:03:46.160Z,4.47
2022-12-04T21:06:19.712Z,4.51
2022-12-04T21:08:53.156Z,4.46
2022-12-04T21:11:28.625Z,4.45
2022-12-04T21:14:15.175Z,4.39
2022-12-04T21:16:42.265Z,4.50
2022-12-04T21:19:11.463Z,4.49
2022-12-04T21:21:38.215Z,4.68
2022-12-04T21:24:07.063Z,4.68
2022-12-04T21:26:34.230Z,4.53
2022-12-04T21:29:01.646Z,4.47
2022-12-04T21:31:30.270Z,4.50
2022-12-04T21:34:01.275Z,4.43
2022-12-04T21:36:28.570Z,4.40
2022-12-04T21:38:55.133Z,4.47
2022-12-04T21:41:40.666Z,4.67
2022-12-04T21:44:13.051Z,4.45
2022-12-04T21:46:39.700Z,4.50
2022-12-04T21:49:06.424Z,4.57
2022-12-04T21:51:56.257Z,4.48
2022-12-04T21:54:20.334Z,4.51
2022-12-04T21:56:47.082Z,4.48
2022-12-04T21:59:13.528Z,4.42
2022-12-04T22:01:40.646Z,4.46
2022-12-04T22:04:07.898Z,4.55
2022-12-04T22:06:36.184Z,4.44
2022-12-04T22:09:05.998Z,4.39
2022-12-04T22:11:32.722Z,4.43
2022-12-04T22:13:59.237Z,4.51
2022-12-04T22:16:30.390Z,4.57
2022-12-04T22:18:58.848Z,4.39
2022-12-04T22:21:26.377Z,4.37
2022-12-04T22:23:55.597Z,4.33
2022-12-04T22:26:22.040Z,4.56
2022-12-04T22:28:48.555Z,4.36
2022-12-04T22:31:19.405Z,4.50
2022-12-04T22:33:52.206Z,4.45
2022-12-04T22:36:21.635Z,4.52
2022-12-04T22:39:08.052Z,4.50
2022-12-04T22:41:35.169Z,4.43
2022-12-04T22:44:01.604Z,4.47
2022-12-04T22:46:28.202Z,4.43
2022-12-04T22:48:54.665Z,4.37
2022-12-04T22:51:22.215Z,4.45
2022-12-04T22:53:54.405Z,4.46
2022-12-04T22:56:26.245Z,4.41
2022-12-04T22:58:53.907Z,4.41
2022-12-04T23:01:23.468Z,4.46
2022-12-04T23:03:51.255Z,4.57
2022-12-04T23:06:19.538Z,4.59
2022-12-04T23:08:46.802Z,4.44
2022-12-04T23:11:18.082Z,4.37
2022-12-04T23:13:53.206Z,4.37
2022-12-04T23:16:21.322Z,4.46
2022-12-04T23:18:48.583Z,4.57
2022-12-04T23:21:16.474Z,4.42
2022-12-04T23:23:44.774Z,4.42
2022-12-04T23:26:12.688Z,4.45
2022-12-04T23:28:39.764Z,4.44
2022-12-04T23:31:06.317Z,4.45
2022-12-04T23:33:33.550Z,4.44
2022-12-04T23:36:02.644Z,4.56
2022-12-04T23:38:30.600Z,4.42
2022-12-04T23:41:04.556Z,4.30
2022-12-04T23:43:32.285Z,4.39
2022-12-04T23:45:58.930Z,4.38
2022-12-04T23:48:25.995Z,4.29
2022-12-04T23:50:53.481Z,4.38
2022-12-04T23:53:21.074Z,4.42
2022-12-04T23:56:26.933Z,4.45
2022-12-04T23:58:55.953Z,4.51
